createdAt,value
2022-12-22T00:01:17.199Z,95544.70
2022-12-22T00:04:27.155Z,95542.27
2022-12-22T00:10:19.175Z,95541.05
2022-12-22T00:13:27.723Z,95541.66
2022-12-22T00:19:15.954Z,95548.10
2022-12-22T00:25:10.398Z,95546.16
2022-12-22T00:31:05.382Z,95546.24
2022-12-22T00:36:59.234Z,95541.17
2022-12-22T00:40:06.197Z,95536.88
2022-12-22T00:43:12.759Z,95543.89
2022-12-22T00:49:08.560Z,95524.53
2022-12-22T00:52:16.756Z,95533.73
2022-12-22T00:58:10.281Z,95522.83
2022-12-22T01:04:00.706Z,95522.70
2022-12-22T01:07:09.338Z,95518.36
2022-12-22T01:10:15.277Z,95526.69
2022-12-22T01:16:02.906Z,95537.55
2022-12-22T01:21:48.484Z,95545.19
2022-12-22T01:24:56.440Z,95549.58
2022-12-22T01:30:50.707Z,95535.08
2022-12-22T01:33:56.826Z,95545.89
2022-12-22T01:37:03.914Z,95557.09
2022-12-22T01:40:10.101Z,95537.03
2022-12-22T01:46:07.299Z,95547.69
2022-12-22T01:52:01.145Z,95548.23
2022-12-22T01:57:56.719Z,95549.17
2022-12-22T02:03:44.611Z,95542.16
2022-12-22T02:06:59.561Z,95538.20
2022-12-22T02:12:58.381Z,95548.32
2022-12-22T02:18:57.616Z,95542.50
2022-12-22T02:22:06.861Z,95545.38
2022-12-22T02:28:01.591Z,95551.11
2022-12-22T02:31:09.546Z,95557.91
2022-12-22T02:37:07.716Z,95533.52
2022-12-22T02:43:02.857Z,95512.85
2022-12-22T02:49:06.952Z,95520.02
2022-12-22T02:54:59.080Z,95523.66
2022-12-22T03:00:52.566Z,95517.23
2022-12-22T03:06:49.638Z,95498.00
2022-12-22T03:12:44.952Z,95490.61
2022-12-22T03:15:51.385Z,95507.34
2022-12-22T03:18:59.125Z,95488.77
2022-12-22T03:24:52.537Z,95489.22
2022-12-22T03:27:41.230Z,95494.05
2022-12-22T03:33:16.986Z,95476.45
2022-12-22T03:36:06.779Z,95475.02
2022-12-22T03:42:00.075Z,95471.38
2022-12-22T03:47:31.533Z,95488.63
2022-12-22T03:53:07.547Z,95487.70
2022-12-22T03:58:42.311Z,95475.44
2022-12-22T04:01:30.717Z,95479.59
2022-12-22T04:07:11.780Z,95471.09
2022-12-22T04:10:19.878Z,95456.81
2022-12-22T04:18:37.854Z,95446.22
2022-12-22T04:24:11.089Z,95445.52
2022-12-22T04:29:48.013Z,95431.56
2022-12-22T04:38:23.582Z,95426.97
2022-12-22T04:41:15.010Z,95429.81
2022-12-22T04:46:51.231Z,95431.42
2022-12-22T04:52:26.747Z,95432.31
2022-12-22T04:58:04.322Z,95431.64
2022-12-22T05:00:55.557Z,95434.79
2022-12-22T05:03:44.679Z,95434.31
2022-12-22T05:09:16.296Z,95436.66
2022-12-22T05:14:48.978Z,95437.20
2022-12-22T05:17:38.307Z,95436.95
2022-12-22T05:20:27.652Z,95449.45
2022-12-22T05:23:16.193Z,95460.64
2022-12-22T05:26:05.613Z,95461.25
2022-12-22T05:31:48.069Z,95475.95
2022-12-22T05:37:18.882Z,95477.64
2022-12-22T05:42:59.076Z,95468.98
2022-12-22T05:45:48.520Z,95453.23
2022-12-22T05:51:20.131Z,95465.22
2022-12-22T05:56:57.683Z,95461.73
2022-12-22T06:02:32.550Z,95476.07
2022-12-22T06:05:22.070Z,95468.41
2022-12-22T06:10:57.468Z,95470.62
2022-12-22T06:16:41.111Z,95495.61
2022-12-22T06:19:29.497Z,95483.00
2022-12-22T06:22:19.423Z,95491.91
2022-12-22T06:25:13.759Z,95474.88
2022-12-22T06:27:59.363Z,95477.10
2022-12-22T06:30:52.715Z,95470.20
2022-12-22T06:33:40.960Z,95488.21
2022-12-22T06:36:29.306Z,95481.63
2022-12-22T06:39:19.592Z,95456.88
2022-12-22T06:42:25.863Z,95459.34
2022-12-22T06:45:14.169Z,95464.52
2022-12-22T06:48:05.517Z,95462.94
2022-12-22T06:50:55.591Z,95477.59
2022-12-22T06:53:44.307Z,95474.00
2022-12-22T06:59:32.171Z,95465.30
2022-12-22T07:05:02.996Z,95462.62
2022-12-22T07:11:00.706Z,95450.34
2022-12-22T07:16:28.327Z,95461.77
2022-12-22T07:19:17.307Z,95451.99
2022-12-22T07:24:45.121Z,95467.14
2022-12-22T07:30:20.586Z,95469.84
2022-12-22T07:36:05.242Z,95486.11
2022-12-22T07:38:53.933Z,95491.60
2022-12-22T07:44:25.140Z,95492.77
2022-12-22T07:47:14.403Z,95491.30
2022-12-22T07:52:54.593Z,95475.89
2022-12-22T07:55:43.245Z,95490.02
2022-12-22T08:01:16.113Z,95479.37
2022-12-22T08:04:04.670Z,95475.58
2022-12-22T08:06:54.146Z,95482.30
2022-12-22T08:12:32.504Z,95466.21
2022-12-22T08:20:51.578Z,95482.82
2022-12-22T08:29:11.316Z,95497.89
2022-12-22T08:34:45.676Z,95514.28
2022-12-22T08:37:41.331Z,95481.28
2022-12-22T08:45:59.432Z,95508.62
2022-12-22T08:51:43.054Z,95542.41
2022-12-22T08:54:31.576Z,95528.63
2022-12-22T09:00:13.040Z,95526.56
2022-12-22T09:05:49.977Z,95513.64
2022-12-22T09:11:19.684Z,95524.19
2022-12-22T09:17:01.296Z,95532.50
2022-12-22T09:22:44.296Z,95557.52
2022-12-22T09:25:35.140Z,95554.16
2022-12-22T09:31:04.382Z,95548.48
2022-12-22T09:36:37.679Z,95563.45
2022-12-22T09:42:06.606Z,95558.82
2022-12-22T09:44:55.133Z,95578.16
2022-12-22T09:50:35.423Z,95580.87
2022-12-22T10:02:15.302Z,95604.64
2022-12-22T10:05:10.238Z,95591.75
2022-12-22T10:08:03.073Z,95590.14
2022-12-22T10:13:43.476Z,95591.62
2022-12-22T10:19:25.463Z,95576.56
2022-12-22T10:22:28.866Z,95586.44
2022-12-22T10:25:52.598Z,95567.98
2022-12-22T10:31:18.384Z,95573.95
2022-12-22T10:37:03.887Z,95580.59
2022-12-22T10:42:40.952Z,95573.80
2022-12-22T10:45:30.035Z,95566.00
2022-12-22T10:51:14.985Z,95561.58
2022-12-22T10:56:53.071Z,95533.66
2022-12-22T10:59:50.464Z,95546.66
2022-12-22T11:05:29.628Z,95533.27
2022-12-22T11:08:22.757Z,95531.50
2022-12-22T11:16:56.205Z,95520.73
2022-12-22T11:22:39.398Z,95505.36
2022-12-22T11:31:57.250Z,95512.11
2022-12-22T11:37:39.591Z,95494.48
2022-12-22T11:43:24.536Z,95490.55
2022-12-22T11:52:35.209Z,95521.02
2022-12-22T12:01:28.855Z,95548.08
2022-12-22T12:07:38.231Z,95548.04
2022-12-22T12:10:29.023Z,95555.03
2022-12-22T12:16:12.762Z,95526.56
2022-12-22T12:19:21.586Z,95538.42
2022-12-22T12:22:20.594Z,95538.53
2022-12-22T12:28:09.177Z,95558.55
2022-12-22T12:30:59.808Z,95555.94
2022-12-22T12:33:50.646Z,95545.98
2022-12-22T12:39:29.742Z,95548.72
2022-12-22T12:45:33.683Z,95552.34
2022-12-22T12:54:43.376Z,95565.65
2022-12-22T13:00:21.499Z,95544.72
2022-12-22T13:06:02.423Z,95548.31
2022-12-22T13:12:11.602Z,95573.27
2022-12-22T13:14:58.610Z,95575.43
2022-12-22T13:20:39.274Z,95573.85
2022-12-22T13:26:19.729Z,95574.10
2022-12-22T13:32:02.783Z,95589.92
2022-12-22T13:37:44.990Z,95583.37
2022-12-22T13:40:35.634Z,95584.91
2022-12-22T13:43:23.821Z,95615.03
2022-12-22T13:46:12.368Z,95595.59
2022-12-22T13:51:48.703Z,95584.94
2022-12-22T13:57:27.703Z,95598.62
2022-12-22T14:00:26.263Z,95600.09
2022-12-22T14:05:59.893Z,95599.33
2022-12-22T14:08:48.400Z,95588.57
2022-12-22T14:11:39.026Z,95588.12
2022-12-22T14:14:33.716Z,95599.88
2022-12-22T14:17:24.945Z,95585.06
2022-12-22T14:23:13.798Z,95592.19
2022-12-22T14:26:03.762Z,95569.32
2022-12-22T14:28:54.764Z,95579.30
2022-12-22T14:31:54.928Z,95586.30
2022-12-22T14:37:32.559Z,95578.73
2022-12-22T14:40:30.419Z,95599.42
2022-12-22T14:46:20.702Z,95570.93
2022-12-22T14:52:01.479Z,95576.91
2022-12-22T14:54:51.433Z,95582.80
2022-12-22T15:00:35.246Z,95562.12
2022-12-22T15:06:40.246Z,95570.45
2022-12-22T15:12:19.449Z,95567.08
2022-12-22T15:18:05.022Z,95573.52
2022-12-22T15:23:41.347Z,95553.72
2022-12-22T15:26:34.390Z,95550.33
2022-12-22T15:32:11.462Z,95557.79
2022-12-22T15:35:03.164Z,95561.88
2022-12-22T15:40:53.979Z,95549.64
2022-12-22T15:43:59.203Z,95575.45
2022-12-22T15:49:23.451Z,95574.53
2022-12-22T15:52:14.869Z,95563.23
2022-12-22T15:55:03.525Z,95558.47
2022-12-22T16:00:40.662Z,95553.05
2022-12-22T16:03:28.738Z,95547.63
2022-12-22T16:09:07.695Z,95534.28
2022-12-22T16:11:57.667Z,95542.86
2022-12-22T16:17:28.717Z,95553.52
2022-12-22T16:20:19.938Z,95553.39
2022-12-22T16:26:01.741Z,95555.10
2022-12-22T16:28:48.622Z,95553.52
2022-12-22T16:34:28.362Z,95553.73
2022-12-22T16:40:10.578Z,95541.41
2022-12-22T16:46:20.280Z,95523.54
2022-12-22T16:49:10.457Z,95523.88
2022-12-22T16:54:52.582Z,95536.89
2022-12-22T17:00:27.914Z,95525.81
2022-12-22T17:03:18.121Z,95529.89
2022-12-22T17:06:08.783Z,95540.16
2022-12-22T17:11:46.447Z,95527.73
2022-12-22T17:17:31.759Z,95535.88
2022-12-22T17:23:04.256Z,95528.63
2022-12-22T17:28:38.557Z,95516.89
2022-12-22T17:34:19.582Z,95514.84
2022-12-22T17:43:13.837Z,95509.30
2022-12-22T17:46:02.007Z,95504.33
2022-12-22T17:51:34.330Z,95492.36
2022-12-22T17:54:24.818Z,95487.50
2022-12-22T17:57:16.915Z,95488.28
2022-12-22T18:02:55.116Z,95480.70
2022-12-22T18:05:45.973Z,95481.62
2022-12-22T18:11:23.849Z,95468.16
2022-12-22T18:14:15.730Z,95477.99
2022-12-22T18:19:46.627Z,95457.63
2022-12-22T18:22:36.613Z,95465.45
2022-12-22T18:28:20.827Z,95450.08
2022-12-22T18:33:58.370Z,95436.74
2022-12-22T18:36:47.849Z,95436.17
2022-12-22T18:42:22.015Z,95413.58
2022-12-22T18:45:17.004Z,95403.19
2022-12-22T18:50:57.508Z,95402.04
2022-12-22T18:56:33.960Z,95392.31
2022-12-22T19:02:23.194Z,95405.06
2022-12-22T19:08:00.169Z,95406.11
2022-12-22T19:13:35.093Z,95411.33
2022-12-22T19:19:06.078Z,95402.05
2022-12-22T19:24:58.908Z,95396.42
2022-12-22T19:30:35.717Z,95379.12
2022-12-22T19:39:06.348Z,95348.84
2022-12-22T19:41:56.867Z,95347.36
2022-12-22T19:47:33.351Z,95353.27
2022-12-22T19:53:10.749Z,95339.45
2022-12-22T19:58:43.468Z,95333.12
2022-12-22T20:04:15.889Z,95332.44
2022-12-22T20:09:59.072Z,95338.08
2022-12-22T20:12:49.532Z,95335.74
2022-12-22T20:15:40.438Z,95332.10
2022-12-22T20:18:30.764Z,95328.37
2022-12-22T20:21:22.596Z,95336.16
2022-12-22T20:24:15.269Z,95323.42
2022-12-22T20:27:04.096Z,95306.95
2022-12-22T20:32:34.997Z,95311.11
2022-12-22T20:38:18.285Z,95321.80
2022-12-22T20:41:10.220Z,95311.08
2022-12-22T20:46:45.426Z,95302.09
2022-12-22T20:52:22.923Z,95289.11
2022-12-22T20:55:15.150Z,95279.61
2022-12-22T21:00:51.374Z,95292.27
2022-12-22T21:03:39.654Z,95291.80
2022-12-22T21:09:16.320Z,95289.34
2022-12-22T21:12:05.345Z,95271.51
2022-12-22T21:17:58.727Z,95268.57
2022-12-22T21:20:57.082Z,95263.36
2022-12-22T21:26:32.953Z,95260.89
2022-12-22T21:29:25.851Z,95256.38
2022-12-22T21:35:10.299Z,95258.64
2022-12-22T21:40:47.423Z,95237.98
2022-12-22T21:43:37.760Z,95234.71
2022-12-22T21:49:08.327Z,95202.23
2022-12-22T21:51:57.496Z,95201.64
2022-12-22T21:54:46.143Z,95203.55
2022-12-22T22:00:18.842Z,95215.30
2022-12-22T22:05:49.801Z,95222.06
2022-12-22T22:11:38.204Z,95224.09
2022-12-22T22:17:14.742Z,95234.92
2022-12-22T22:22:52.770Z,95214.94
2022-12-22T22:25:41.521Z,95229.37
2022-12-22T22:28:30.124Z,95223.30
2022-12-22T22:36:53.002Z,95199.27
2022-12-22T22:42:22.938Z,95198.24
2022-12-22T22:47:55.722Z,95211.45
2022-12-22T22:53:25.616Z,95192.17
2022-12-22T22:59:02.481Z,95169.41
2022-12-22T23:04:32.477Z,95195.91
2022-12-22T23:13:00.664Z,95192.98
2022-12-22T23:18:42.549Z,95199.39
2022-12-22T23:24:10.852Z,95185.29
2022-12-22T23:32:26.525Z,95202.91
2022-12-22T23:38:00.575Z,95198.39
2022-12-22T23:43:36.220Z,95196.36
2022-12-22T23:46:24.528Z,95208.64
2022-12-22T23:49:13.953Z,95190.70
2022-12-22T23:54:51.112Z,95194.33
2022-12-22T23:57:40.131Z,95205.15
